Time;durP1;ratioP1;P1;durP2;ratioP2;P2;SDS_P1;SDS_P2;PMS_P1;PMS_P2;Temp;Humidity;BMP_temperature;BMP_pressure;BME280_temperature;BME280_humidity;BME280_pressure;Samples;Min_cycle;Max_cycle;Signal;HPM_P1;HPM_P2
2021/11/09 00:00:46;;;;;;;13.60;7.20;;;10.50;99.90;;;;;;6128550;23;20421;-84
2021/11/09 00:03:14;;;;;;;13.00;7.37;;;10.70;99.90;;;;;;6153291;23;20426;-85
2021/11/09 00:05:53;;;;;;;11.60;7.27;;;10.60;99.90;;;;;;6128794;23;20443;-84
2021/11/09 00:08:25;;;;;;;12.37;6.93;;;10.50;99.90;;;;;;6128734;23;20497;-83
2021/11/09 00:10:52;;;;;;;15.23;7.63;;;10.40;99.90;;;;;;6127627;23;20422;-84
2021/11/09 00:13:20;;;;;;;15.90;7.80;;;10.50;99.90;;;;;;6154883;23;20486;-84
2021/11/09 00:15:47;;;;;;;15.90;8.00;;;10.70;99.90;;;;;;6130202;23;20437;-84
2021/11/09 00:18:15;;;;;;;13.60;8.50;;;10.60;99.90;;;;;;6128268;23;20446;-83
2021/11/09 00:20:42;;;;;;;14.47;7.23;;;10.60;99.90;;;;;;6127593;23;21097;-83
2021/11/09 00:23:11;;;;;;;12.30;7.43;;;10.40;99.90;;;;;;6127785;23;20477;-84
2021/11/09 00:25:40;;;;;;;16.73;6.77;;;10.30;99.90;;;;;;6154104;23;20436;-85
2021/11/09 00:28:10;;;;;;;13.20;7.77;;;10.20;99.90;;;;;;6125258;23;20471;-83
2021/11/09 00:30:38;;;;;;;17.00;7.30;;;10.40;99.90;;;;;;6156443;23;20521;-81
2021/11/09 00:33:05;;;;;;;17.07;7.60;;;10.50;99.90;;;;;;6127836;23;20557;-82
2021/11/09 00:35:33;;;;;;;19.67;8.03;;;10.60;99.90;;;;;;6127710;23;20734;-83
2021/11/09 00:38:04;;;;;;;14.03;7.63;;;10.60;99.90;;;;;;6152680;23;20501;-84
2021/11/09 00:40:34;;;;;;;13.90;6.90;;;10.50;99.90;;;;;;6127297;23;20414;-85
2021/11/09 00:43:03;;;;;;;14.43;8.00;;;10.30;99.90;;;;;;6125932;23;20413;-85
2021/11/09 00:45:30;;;;;;;18.37;8.00;;;10.30;99.90;;;;;;6154998;23;20819;-83
2021/11/09 00:47:57;;;;;;;14.90;6.93;;;10.10;99.90;;;;;;6149991;23;20518;-84
2021/11/09 00:50:25;;;;;;;10.67;6.17;;;10.00;99.90;;;;;;6126441;23;20432;-82
2021/11/09 00:52:52;;;;;;;13.07;7.10;;;10.00;99.90;;;;;;6126256;23;20844;-81
2021/11/09 00:55:20;;;;;;;18.70;6.80;;;10.20;99.90;;;;;;6151139;23;20398;-83
2021/11/09 00:57:48;;;;;;;20.37;7.17;;;10.20;99.90;;;;;;6126819;23;20434;-83
2021/11/09 01:00:19;;;;;;;15.47;6.80;;;10.20;99.90;;;;;;6129212;23;20421;-84
2021/11/09 01:02:47;;;;;;;18.60;6.97;;;9.90;99.90;;;;;;6125392;23;20396;-85
2021/11/09 01:05:20;;;;;;;14.47;6.83;;;9.90;99.90;;;;;;6152940;23;20425;-83
2021/11/09 01:07:49;;;;;;;18.00;7.33;;;9.80;99.90;;;;;;6153275;23;20477;-84
2021/11/09 01:10:17;;;;;;;9.60;6.40;;;9.70;99.90;;;;;;6153205;23;20415;-83
2021/11/09 01:12:45;;;;;;;16.93;7.20;;;9.60;99.90;;;;;;6151399;23;20717;-83
2021/11/09 01:15:12;;;;;;;14.87;7.30;;;9.80;99.90;;;;;;6128912;23;20993;-83
2021/11/09 01:17:39;;;;;;;13.67;6.80;;;9.90;99.90;;;;;;6155169;23;20902;-83
2021/11/09 01:20:07;;;;;;;17.03;7.20;;;9.80;99.90;;;;;;6127703;23;20521;-84
2021/11/09 01:22:34;;;;;;;11.03;5.77;;;9.70;99.90;;;;;;6124260;23;20422;-83
2021/11/09 01:25:01;;;;;;;14.10;6.80;;;9.60;99.90;;;;;;6128085;23;20900;-84
2021/11/09 01:30:05;;;;;;;13.40;7.20;;;9.70;99.90;;;;;;6154809;23;20781;-85
2021/11/09 01:32:35;;;;;;;15.43;7.13;;;9.70;99.90;;;;;;6132730;23;20908;-84
2021/11/09 01:35:03;;;;;;;12.07;7.00;;;9.80;99.90;;;;;;6167600;23;20405;-85
2021/11/09 01:37:30;;;;;;;13.50;8.63;;;9.60;99.90;;;;;;6155482;23;20540;-84
2021/11/09 01:39:57;;;;;;;13.33;6.03;;;9.60;99.90;;;;;;6141262;23;20465;-86
2021/11/09 01:42:24;;;;;;;16.00;7.20;;;9.60;99.90;;;;;;6129114;23;20469;-84
2021/11/09 01:44:56;;;;;;;17.60;9.17;;;9.60;99.90;;;;;;6156177;23;20850;-84
2021/11/09 01:47:24;;;;;;;21.63;10.23;;;9.60;99.90;;;;;;6130568;23;20598;-83
2021/11/09 01:49:51;;;;;;;15.70;8.77;;;9.50;99.90;;;;;;6130410;23;20399;-84
2021/11/09 01:52:18;;;;;;;16.07;8.20;;;9.50;99.90;;;;;;6127985;23;21132;-84
2021/11/09 01:54:45;;;;;;;17.33;8.63;;;9.50;99.90;;;;;;6128259;23;20410;-82
2021/11/09 01:57:12;;;;;;;16.87;9.20;;;9.60;99.90;;;;;;6128990;23;20474;-83
2021/11/09 01:59:39;;;;;;;14.27;6.80;;;9.50;99.90;;;;;;6146386;23;20914;-83
2021/11/09 02:02:05;;;;;;;16.70;7.37;;;9.60;99.90;;;;;;6169987;23;20501;-85
2021/11/09 02:04:33;;;;;;;14.90;6.57;;;9.60;99.90;;;;;;6144204;23;20410;-84
2021/11/09 02:07:01;;;;;;;14.63;8.17;;;9.50;99.90;;;;;;6143055;23;20560;-85
2021/11/09 02:09:28;;;;;;;10.60;7.27;;;9.40;99.90;;;;;;6152850;23;20477;-84
2021/11/09 02:11:57;;;;;;;11.50;7.30;;;9.30;99.90;;;;;;6154906;23;20415;-85
2021/11/09 02:14:24;;;;;;;11.17;7.87;;;9.30;99.90;;;;;;6190148;23;20410;-85
2021/11/09 02:16:53;;;;;;;12.57;7.07;;;9.30;99.90;;;;;;6166141;23;20402;-84
2021/11/09 02:19:20;;;;;;;11.37;6.40;;;9.20;99.90;;;;;;6167113;23;20620;-85
2021/11/09 02:21:46;;;;;;;13.70;6.53;;;9.40;99.90;;;;;;6166364;23;20414;-85
2021/11/09 02:24:13;;;;;;;12.03;5.90;;;9.40;99.90;;;;;;6164412;23;20421;-84
2021/11/09 02:26:40;;;;;;;12.43;6.17;;;9.30;99.90;;;;;;6178583;23;20964;-82
2021/11/09 02:29:08;;;;;;;14.07;6.00;;;9.20;99.90;;;;;;6173772;23;20465;-80
2021/11/09 02:31:35;;;;;;;12.90;7.30;;;9.50;99.90;;;;;;6175916;23;20449;-84
2021/11/09 02:34:03;;;;;;;9.40;5.73;;;9.70;99.90;;;;;;6152054;23;20410;-85
2021/11/09 02:36:30;;;;;;;10.60;6.20;;;9.70;99.90;;;;;;6174241;23;20418;-84
2021/11/09 02:38:57;;;;;;;15.77;6.73;;;9.60;99.90;;;;;;6143841;23;20434;-83
2021/11/09 02:41:26;;;;;;;16.50;7.63;;;9.60;99.90;;;;;;6153806;23;20417;-87
2021/11/09 02:43:57;;;;;;;16.63;7.57;;;9.40;99.90;;;;;;6149149;23;20432;-82
2021/11/09 02:46:35;;;;;;;11.17;6.30;;;9.40;99.90;;;;;;6146878;23;20554;-82
2021/11/09 02:49:14;;;;;;;12.70;6.97;;;9.50;99.90;;;;;;6146341;23;20487;-84
2021/11/09 02:51:56;;;;;;;14.70;7.00;;;9.60;99.90;;;;;;6148100;23;20453;-82
2021/11/09 02:54:35;;;;;;;15.60;6.73;;;9.50;99.90;;;;;;6154986;23;20398;-82
2021/11/09 02:57:05;;;;;;;15.00;8.40;;;9.40;99.90;;;;;;6153419;23;20513;-85
2021/11/09 02:59:44;;;;;;;10.57;6.77;;;9.10;99.90;;;;;;6144836;23;21136;-83
2021/11/09 03:05:11;;;;;;;14.43;5.30;;;9.20;99.90;;;;;;6172124;23;20412;-84
2021/11/09 03:07:55;;;;;;;15.50;7.17;;;9.10;99.90;;;;;;6143750;23;20464;-83
2021/11/09 03:10:41;;;;;;;12.73;6.17;;;9.20;99.90;;;;;;6143573;23;20412;-83
2021/11/09 03:13:09;;;;;;;15.03;7.90;;;9.20;99.90;;;;;;6169778;23;20405;-82
2021/11/09 03:15:37;;;;;;;12.50;7.43;;;9.10;99.90;;;;;;6170085;23;20411;-84
2021/11/09 03:18:11;;;;;;;13.10;7.03;;;9.00;99.90;;;;;;6140296;23;20501;-83
2021/11/09 03:40:27;;;;;;;11.87;6.30;;;9.20;99.90;;;;;;6167847;23;20540;-86
2021/11/09 03:45:40;;;;;;;11.90;6.07;;;8.90;99.90;;;;;;6167375;23;20410;-84
2021/11/09 03:48:10;;;;;;;11.73;6.50;;;8.80;99.90;;;;;;6141399;23;20474;-85
2021/11/09 03:50:41;;;;;;;14.57;5.50;;;8.60;99.90;;;;;;6141533;23;20478;-84
2021/11/09 03:53:14;;;;;;;16.47;6.70;;;8.60;99.90;;;;;;6167066;23;20427;-84
2021/11/09 03:56:10;;;;;;;15.10;6.10;;;8.60;99.90;;;;;;6141277;23;20399;-84
2021/11/09 03:58:43;;;;;;;10.00;6.00;;;8.60;99.90;;;;;;6168199;23;20470;-85
2021/11/09 04:01:15;;;;;;;16.20;6.53;;;8.70;99.90;;;;;;6143413;23;20414;-84
2021/11/09 04:08:50;;;;;;;19.43;5.40;;;9.10;99.90;;;;;;6169667;23;20442;-84
2021/11/09 04:16:47;;;;;;;11.30;5.43;;;8.90;99.90;;;;;;6170032;23;20453;-85
2021/11/09 04:30:04;;;;;;;10.23;5.87;;;8.70;99.90;;;;;;6170046;23;20438;-84
2021/11/09 04:33:14;;;;;;;12.80;5.37;;;8.60;99.90;;;;;;6144231;23;20425;-84
2021/11/09 04:47:47;;;;;;;10.53;6.40;;;8.90;99.90;;;;;;6172155;23;20412;-84
2021/11/09 04:52:35;;;;;;;13.27;7.17;;;8.80;99.90;;;;;;6171403;23;20739;-84
2021/11/09 05:11:31;;;;;;;15.80;8.43;;;8.60;99.90;;;;;;6169366;23;20577;-85
2021/11/09 05:14:16;;;;;;;18.67;7.57;;;8.50;99.90;;;;;;6147150;23;20413;-85
2021/11/09 05:16:45;;;;;;;15.47;9.83;;;8.40;99.90;;;;;;6165555;23;20485;-86
2021/11/09 05:19:12;;;;;;;14.03;7.70;;;8.40;99.90;;;;;;6188782;23;20453;-85
2021/11/09 05:21:40;;;;;;;12.30;7.90;;;8.50;99.90;;;;;;6167738;23;20783;-86
2021/11/09 05:24:13;;;;;;;21.87;9.27;;;8.60;99.90;;;;;;6195274;23;20494;-85
2021/11/09 05:26:43;;;;;;;25.40;9.40;;;8.60;99.90;;;;;;6181231;23;21004;-85
2021/11/09 05:29:11;;;;;;;30.13;8.27;;;8.50;99.90;;;;;;6182906;23;20433;-85
2021/11/09 05:31:57;;;;;;;20.90;7.30;;;8.50;99.90;;;;;;6149997;23;20796;-84
2021/11/09 05:34:33;;;;;;;19.40;8.70;;;8.50;99.90;;;;;;6173932;23;20428;-84
2021/11/09 05:37:00;;;;;;;19.60;8.47;;;8.50;99.90;;;;;;6146997;23;20477;-84
2021/11/09 05:39:56;;;;;;;22.07;9.70;;;8.40;99.90;;;;;;6172244;23;20426;-84
2021/11/09 05:42:23;;;;;;;24.70;9.87;;;8.40;99.90;;;;;;6171459;23;20469;-83
2021/11/09 05:44:50;;;;;;;14.57;8.07;;;8.40;99.90;;;;;;6172387;23;20400;-85
2021/11/09 05:47:18;;;;;;;19.20;7.90;;;8.10;99.90;;;;;;6172012;23;20445;-84
2021/11/09 05:49:44;;;;;;;15.30;7.57;;;8.00;99.90;;;;;;6175108;23;20752;-85
2021/11/09 05:52:11;;;;;;;14.30;7.67;;;7.90;99.90;;;;;;6150349;23;20414;-84
2021/11/09 05:54:38;;;;;;;18.00;7.93;;;7.90;99.90;;;;;;6147215;23;20429;-83
2021/11/09 05:57:05;;;;;;;17.10;8.00;;;7.90;99.90;;;;;;6171596;23;20424;-84
2021/11/09 05:59:32;;;;;;;17.80;7.17;;;8.10;99.90;;;;;;6146203;23;20448;-83
2021/11/09 06:02:00;;;;;;;15.10;8.47;;;8.10;99.90;;;;;;6148592;23;20409;-83
2021/11/09 06:04:28;;;;;;;17.03;7.47;;;8.00;99.90;;;;;;6149534;23;20968;-84
2021/11/09 06:06:55;;;;;;;13.30;7.57;;;8.00;99.90;;;;;;6180290;23;20395;-84
2021/11/09 06:09:22;;;;;;;15.20;7.37;;;8.00;99.90;;;;;;6169300;23;20544;-85
2021/11/09 06:11:49;;;;;;;13.40;7.20;;;8.10;99.90;;;;;;6194131;23;20402;-86
2021/11/09 06:14:16;;;;;;;14.60;8.60;;;8.30;99.90;;;;;;6157753;23;20419;-83
2021/11/09 06:16:43;;;;;;;11.97;6.53;;;8.40;99.90;;;;;;6146490;23;20440;-83
2021/11/09 06:19:17;;;;;;;11.80;7.30;;;8.50;99.90;;;;;;6137132;23;20472;-85
2021/11/09 06:21:47;;;;;;;12.47;7.30;;;8.40;99.90;;;;;;6170185;23;20473;-83
2021/11/09 06:24:13;;;;;;;14.87;7.23;;;8.50;99.90;;;;;;6142724;23;20413;-82
2021/11/09 06:26:40;;;;;;;15.40;6.83;;;8.40;99.90;;;;;;6168730;23;20413;-82
2021/11/09 06:29:14;;;;;;;16.10;6.43;;;8.50;99.90;;;;;;6137065;23;20664;-83
2021/11/09 06:31:41;;;;;;;15.57;7.47;;;8.30;99.90;;;;;;6144547;23;20940;-83
2021/11/09 06:34:11;;;;;;;12.70;8.00;;;8.30;99.90;;;;;;6142585;23;20415;-82
2021/11/09 06:36:38;;;;;;;14.90;6.37;;;8.20;99.90;;;;;;6146274;23;20420;-85
2021/11/09 06:39:18;;;;;;;11.50;6.77;;;8.10;99.90;;;;;;6144997;23;21228;-83
2021/11/09 06:41:45;;;;;;;18.50;6.57;;;8.30;99.90;;;;;;6146426;23;20417;-85
2021/11/09 06:44:20;;;;;;;9.83;5.83;;;8.30;99.90;;;;;;6145450;23;20410;-85
2021/11/09 06:46:47;;;;;;;14.53;6.27;;;8.30;99.90;;;;;;6146921;23;20414;-83
2021/11/09 06:49:14;;;;;;;8.10;6.13;;;8.20;99.90;;;;;;6173444;23;20553;-86
2021/11/09 06:51:50;;;;;;;11.07;6.40;;;8.20;99.90;;;;;;6174434;23;20411;-85
2021/11/09 06:54:17;;;;;;;11.93;6.17;;;8.10;99.90;;;;;;6151489;23;20398;-83
2021/11/09 06:56:45;;;;;;;12.63;7.40;;;8.40;99.90;;;;;;6146351;23;20402;-83
2021/11/09 06:59:14;;;;;;;9.77;6.80;;;8.80;99.90;;;;;;6144929;23;20479;-85
2021/11/09 07:01:50;;;;;;;13.80;6.57;;;8.80;99.90;;;;;;6154071;23;20573;-85
2021/11/09 07:04:18;;;;;;;11.77;7.50;;;8.80;99.90;;;;;;6146420;23;20415;-83
2021/11/09 07:06:45;;;;;;;15.07;6.97;;;8.80;99.90;;;;;;6149909;23;20437;-84
2021/11/09 07:09:12;;;;;;;10.70;8.10;;;8.90;99.90;;;;;;6175805;23;20457;-84
2021/11/09 07:11:40;;;;;;;13.03;7.00;;;8.80;99.90;;;;;;6147308;23;20412;-82
2021/11/09 07:14:07;;;;;;;14.90;8.00;;;8.80;99.90;;;;;;6147038;23;20441;-85
2021/11/09 07:16:42;;;;;;;13.97;6.53;;;8.70;99.90;;;;;;6149711;23;20416;-84
2021/11/09 07:19:09;;;;;;;14.47;7.43;;;8.70;99.90;;;;;;6148372;23;20439;-85
2021/11/09 07:21:36;;;;;;;16.20;6.63;;;8.80;99.90;;;;;;6146954;23;20407;-83
2021/11/09 07:24:04;;;;;;;13.53;7.90;;;8.80;99.90;;;;;;6147826;23;20422;-83
2021/11/09 07:26:31;;;;;;;11.20;7.40;;;8.70;99.90;;;;;;6147259;23;20572;-86
2021/11/09 07:28:58;;;;;;;20.33;7.90;;;8.80;99.90;;;;;;6158767;23;20450;-83
2021/11/09 07:31:28;;;;;;;10.87;7.50;;;8.80;99.90;;;;;;6146235;23;20413;-83
2021/11/09 07:33:56;;;;;;;18.00;7.37;;;8.90;99.90;;;;;;6149759;23;20414;-83
2021/11/09 07:36:37;;;;;;;13.70;7.50;;;9.00;99.90;;;;;;6146880;23;20410;-84
2021/11/09 07:39:07;;;;;;;15.53;7.83;;;8.80;99.90;;;;;;6143778;23;20443;-84
2021/11/09 07:41:34;;;;;;;15.77;7.80;;;8.90;99.90;;;;;;6142349;23;20399;-85
2021/11/09 07:44:06;;;;;;;16.27;6.80;;;9.00;99.90;;;;;;6144009;23;20427;-85
2021/11/09 07:46:37;;;;;;;15.83;7.70;;;9.00;99.90;;;;;;6144617;23;20512;-84
2021/11/09 07:49:07;;;;;;;8.67;6.60;;;9.00;99.90;;;;;;6150077;23;20449;-84
2021/11/09 07:51:36;;;;;;;14.17;7.70;;;9.00;99.90;;;;;;6154644;23;20414;-82
2021/11/09 07:54:08;;;;;;;12.63;8.03;;;8.90;99.90;;;;;;6158614;23;20821;-85
2021/11/09 07:56:36;;;;;;;12.90;7.67;;;8.90;99.90;;;;;;6154991;23;20481;-85
2021/11/09 08:01:43;;;;;;;12.80;8.07;;;9.10;99.90;;;;;;6145816;23;20414;-83
2021/11/09 08:09:33;;;;;;;11.33;6.67;;;9.20;99.90;;;;;;6142009;23;20451;-83
2021/11/09 08:12:02;;;;;;;13.00;7.67;;;9.20;99.90;;;;;;6141600;23;20415;-85
2021/11/09 08:14:30;;;;;;;18.23;6.87;;;9.20;99.90;;;;;;6117131;23;20482;-85
2021/11/09 08:16:57;;;;;;;7.60;6.63;;;9.20;99.90;;;;;;6142379;23;20415;-85
2021/11/09 08:19:24;;;;;;;19.00;7.10;;;9.20;99.90;;;;;;6156214;23;20469;-83
2021/11/09 08:21:53;;;;;;;10.67;6.93;;;9.10;99.90;;;;;;6143352;23;20416;-84
2021/11/09 08:24:22;;;;;;;13.30;8.10;;;9.10;99.90;;;;;;6142935;23;20411;-84
2021/11/09 08:26:51;;;;;;;10.90;7.60;;;9.20;99.90;;;;;;6142017;23;20407;-86
2021/11/09 08:29:22;;;;;;;14.70;7.80;;;9.40;99.90;;;;;;6147293;23;20961;-82
2021/11/09 08:31:49;;;;;;;12.33;6.97;;;9.40;99.90;;;;;;6173419;23;20422;-85
2021/11/09 08:34:24;;;;;;;12.77;8.07;;;9.50;99.90;;;;;;6147026;23;20861;-86
2021/11/09 08:36:52;;;;;;;15.00;7.80;;;9.50;99.90;;;;;;6147285;23;20985;-84
2021/11/09 08:39:25;;;;;;;18.00;8.10;;;9.50;99.90;;;;;;6146411;23;20533;-84
2021/11/09 08:44:40;;;;;;;9.80;6.83;;;9.40;99.90;;;;;;6173631;23;20428;-83
2021/11/09 08:47:07;;;;;;;11.73;8.03;;;9.50;99.90;;;;;;6147457;23;20414;-84
2021/11/09 08:49:35;;;;;;;11.33;7.30;;;9.40;99.90;;;;;;6155928;23;20480;-85
2021/11/09 08:52:10;;;;;;;13.00;6.70;;;9.40;99.90;;;;;;6156666;23;20402;-86
2021/11/09 09:04:40;;;;;;;15.37;7.57;;;9.70;99.90;;;;;;6187483;23;20418;-84
2021/11/09 09:10:23;;;;;;;13.40;7.37;;;9.60;99.90;;;;;;6153658;23;20525;-86
2021/11/09 09:12:50;;;;;;;12.60;7.07;;;9.70;99.90;;;;;;6128431;23;20409;-85
2021/11/09 09:19:39;;;;;;;10.77;6.47;;;9.90;99.90;;;;;;6024337;23;20417;-83
2021/11/09 09:56:04;;;;;;;9.57;6.20;;;14.20;90.60;;;;;;6092351;23;20418;-84
2021/11/09 09:58:31;;;;;;;9.87;5.80;;;13.50;92.00;;;;;;6096247;23;20441;-84
2021/11/09 10:00:58;;;;;;;10.30;5.63;;;13.10;93.20;;;;;;6123486;23;20435;-82
2021/11/09 10:03:36;;;;;;;13.40;6.57;;;12.90;93.50;;;;;;6095311;23;20420;-83
2021/11/09 10:06:06;;;;;;;10.77;7.07;;;12.60;94.50;;;;;;6095089;23;20496;-84
2021/11/09 10:08:49;;;;;;;10.50;7.20;;;12.50;95.30;;;;;;6101219;23;20535;-84
2021/11/09 10:11:34;;;;;;;16.00;9.10;;;12.30;95.80;;;;;;6101738;23;20545;-81
2021/11/09 10:14:08;;;;;;;14.67;9.77;;;12.20;96.20;;;;;;6123927;23;20412;-83
2021/11/09 10:16:38;;;;;;;14.90;10.37;;;12.10;96.50;;;;;;6088165;23;20537;-85
2021/11/09 10:19:06;;;;;;;12.10;8.90;;;11.70;97.20;;;;;;6120757;23;20433;-84
2021/11/09 10:21:40;;;;;;;13.40;9.47;;;11.80;97.80;;;;;;6117992;23;20431;-81
2021/11/09 10:24:26;;;;;;;13.57;8.80;;;12.00;97.80;;;;;;6088952;23;20420;-83
2021/11/09 10:27:22;;;;;;;20.03;8.60;;;12.10;97.60;;;;;;6084725;23;20739;-82
2021/11/09 10:30:30;;;;;;;12.70;6.97;;;12.10;97.70;;;;;;6095200;23;20500;-82
2021/11/09 10:36:39;;;;;;;12.90;7.00;;;12.00;98.20;;;;;;5947764;23;20423;-84
2021/11/09 11:00:45;;;;;;;10.13;6.50;;;12.20;96.90;;;;;;6191732;23;20424;-85
2021/11/09 11:04:09;;;;;;;7.23;4.53;;;12.50;96.10;;;;;;6169423;23;20442;-86
2021/11/09 11:11:46;;;;;;;9.10;4.77;;;12.60;94.70;;;;;;6014611;23;20402;-85
2021/11/09 11:14:26;;;;;;;9.57;4.97;;;12.40;94.50;;;;;;5987239;23;20794;-85
2021/11/09 11:19:53;;;;;;;12.13;4.30;;;12.70;94.40;;;;;;6177494;23;21461;-83
2021/11/09 11:26:50;;;;;;;9.63;4.17;;;12.60;94.00;;;;;;6216550;23;20439;-85
2021/11/09 11:29:54;;;;;;;;;;;;;;;;;;;;;
2021/11/09 11:33:01;;;;;;;9.30;4.00;;;12.70;92.90;;;;;;6215431;22;20402;-85
2021/11/09 11:40:04;;;;;;;6.93;3.87;;;12.70;93.20;;;;;;6072176;23;20591;-85
2021/11/09 11:42:49;;;;;;;6.60;3.40;;;12.70;92.60;;;;;;6052169;23;20413;-85
2021/11/09 11:45:25;;;;;;;7.17;3.10;;;12.70;93.20;;;;;;6072376;23;20412;-85
2021/11/09 11:53:08;;;;;;;4.23;3.93;;;13.10;91.30;;;;;;6162144;23;20419;-85
2021/11/09 11:56:38;;;;;;;;;;;;;;;;;;;;;
2021/11/09 11:59:43;;;;;;;7.47;3.60;;;13.30;90.80;;;;;;6107494;23;20518;-85
2021/11/09 12:02:30;;;;;;;5.60;2.90;;;13.30;90.50;;;;;;6130799;23;20415;-85
2021/11/09 12:05:40;;;;;;;6.90;2.87;;;13.40;89.90;;;;;;6132834;23;20400;-84
2021/11/09 12:08:13;;;;;;;7.57;4.03;;;13.20;89.00;;;;;;6103876;23;21014;-85
2021/11/09 12:10:45;;;;;;;5.90;2.63;;;13.10;90.10;;;;;;6108068;23;20423;-85
2021/11/09 12:13:13;;;;;;;6.00;3.47;;;13.40;88.50;;;;;;6133798;23;20423;-85
2021/11/09 12:15:54;;;;;;;4.80;2.43;;;13.50;87.10;;;;;;6133534;23;20415;-86
2021/11/09 12:18:34;;;;;;;3.00;2.20;;;13.40;87.30;;;;;;6132053;23;21127;-83
2021/11/09 12:21:23;;;;;;;4.70;2.67;;;13.40;86.70;;;;;;6102393;23;20414;-85
2021/11/09 12:27:48;;;;;;;6.97;3.00;;;13.40;87.60;;;;;;6028335;23;20646;-85
2021/11/09 12:30:35;;;;;;;4.90;2.90;;;13.30;88.40;;;;;;6106799;23;20442;-84
2021/11/09 12:33:19;;;;;;;7.43;2.87;;;13.50;88.80;;;;;;6109330;23;20446;-85
2021/11/09 12:36:10;;;;;;;5.83;2.93;;;13.40;88.70;;;;;;6107075;23;20462;-86
2021/11/09 12:39:01;;;;;;;6.73;3.07;;;13.50;88.80;;;;;;6109846;23;20447;-85
2021/11/09 12:41:31;;;;;;;7.10;3.07;;;13.40;88.50;;;;;;6128193;23;20426;-85
2021/11/09 12:44:58;;;;;;;5.70;2.53;;;13.30;88.70;;;;;;6095321;23;21188;-85
2021/11/09 12:48:09;;;;;;;6.73;2.30;;;13.30;89.00;;;;;;6029085;23;20422;-84
2021/11/09 12:51:11;;;;;;;8.10;3.50;;;13.60;87.20;;;;;;6051276;23;20830;-84
2021/11/09 12:54:11;;;;;;;4.80;2.77;;;13.60;87.10;;;;;;6107043;23;20882;-83
2021/11/09 12:57:03;;;;;;;3.13;2.80;;;13.30;87.00;;;;;;6098852;23;20413;-84
2021/11/09 12:59:50;;;;;;;5.80;2.60;;;13.30;86.10;;;;;;6102682;23;20965;-83
2021/11/09 13:02:25;;;;;;;2.83;2.30;;;13.40;85.50;;;;;;6123979;23;20411;-85
2021/11/09 13:05:22;;;;;;;7.17;3.70;;;13.20;86.10;;;;;;6103065;23;20420;-84
2021/11/09 13:07:49;;;;;;;6.97;2.23;;;13.40;85.90;;;;;;6102233;23;20473;-85
2021/11/09 13:10:22;;;;;;;7.20;2.60;;;13.50;84.40;;;;;;6129937;23;20503;-85
2021/11/09 13:12:51;;;;;;;5.30;2.20;;;13.40;83.90;;;;;;6127794;23;20407;-86
2021/11/09 13:15:21;;;;;;;4.60;2.00;;;13.60;82.30;;;;;;6102923;23;20800;-83
2021/11/09 13:18:04;;;;;;;4.60;2.03;;;13.60;79.70;;;;;;6101143;23;20927;-84
2021/11/09 13:20:38;;;;;;;3.93;1.60;;;13.50;78.80;;;;;;6099666;23;20481;-84
2021/11/09 13:23:13;;;;;;;3.30;1.90;;;13.40;78.30;;;;;;6135222;23;20468;-84
2021/11/09 13:25:47;;;;;;;2.70;1.93;;;13.20;78.90;;;;;;6128300;23;20430;-86
2021/11/09 13:28:24;;;;;;;3.30;2.00;;;13.40;78.60;;;;;;6103368;23;20436;-82
2021/11/09 13:30:54;;;;;;;5.77;2.33;;;13.50;77.40;;;;;;6126462;23;20447;-85
2021/11/09 13:33:23;;;;;;;5.60;2.73;;;13.50;77.70;;;;;;6098762;23;20407;-85
2021/11/09 13:35:52;;;;;;;3.23;2.20;;;13.50;78.20;;;;;;6099925;23;20450;-84
2021/11/09 13:38:33;;;;;;;2.17;1.90;;;13.30;79.20;;;;;;6103540;23;20431;-85
2021/11/09 13:41:16;;;;;;;2.93;1.40;;;13.40;78.40;;;;;;6105926;23;20435;-83
2021/11/09 13:43:53;;;;;;;1.60;1.50;;;13.50;75.50;;;;;;6104333;23;20429;-82
2021/11/09 13:46:27;;;;;;;1.97;1.50;;;13.50;74.30;;;;;;6102535;23;20865;-84
2021/11/09 13:48:58;;;;;;;4.70;1.70;;;13.30;75.00;;;;;;6128646;23;20437;-84
2021/11/09 13:51:29;;;;;;;3.87;1.73;;;13.50;73.80;;;;;;6131100;23;20407;-86
2021/11/09 13:54:08;;;;;;;3.37;1.93;;;13.30;74.00;;;;;;6107570;23;20402;-85
2021/11/09 13:56:35;;;;;;;3.10;2.10;;;13.20;74.30;;;;;;6129372;23;20689;-85
2021/11/09 13:59:06;;;;;;;2.77;1.80;;;13.00;75.10;;;;;;6102196;23;20807;-85
2021/11/09 14:13:17;;;;;;;2.00;1.80;;;13.20;77.80;;;;;;6132467;23;20386;-84
2021/11/09 14:18:35;;;;;;;3.97;2.20;;;13.30;79.00;;;;;;6137245;23;20951;-82
2021/11/09 14:21:05;;;;;;;4.60;2.03;;;13.40;78.50;;;;;;6110691;23;20446;-84
2021/11/09 14:23:36;;;;;;;3.13;2.10;;;13.10;79.30;;;;;;6130090;23;20405;-85
2021/11/09 14:26:23;;;;;;;3.30;2.07;;;13.20;79.40;;;;;;6105112;23;20449;-85
2021/11/09 14:31:59;;;;;;;5.60;2.50;;;13.10;80.00;;;;;;6129471;23;20402;-85
2021/11/09 14:34:29;;;;;;;3.43;1.83;;;13.20;79.90;;;;;;6129605;23;20398;-83
2021/11/09 14:37:20;;;;;;;4.40;2.10;;;13.40;80.00;;;;;;6099521;23;20411;-83
2021/11/09 14:40:16;;;;;;;3.60;2.40;;;13.50;79.20;;;;;;6101592;23;20421;-83
2021/11/09 14:48:17;;;;;;;3.73;2.43;;;13.10;81.70;;;;;;6126441;23;20445;-84
2021/11/09 14:50:53;;;;;;;7.20;2.77;;;13.10;81.60;;;;;;6099763;23;20449;-82
2021/11/09 14:53:36;;;;;;;2.97;2.00;;;13.30;81.20;;;;;;6098740;23;20906;-83
2021/11/09 14:56:07;;;;;;;4.73;2.60;;;13.50;80.80;;;;;;6100588;23;20400;-82
2021/11/09 14:58:56;;;;;;;9.17;2.97;;;13.40;80.70;;;;;;6100211;23;20442;-87
2021/11/09 15:02:17;;;;;;;;;;;;;;;;;;;;;
2021/11/09 15:04:48;;;;;;;3.20;2.03;;;12.90;82.00;;;;;;6139961;23;20423;-85
2021/11/09 15:28:54;;;;;;;5.40;2.50;;;12.80;85.10;;;;;;6123431;23;20411;-85
2021/11/09 15:39:30;;;;;;;4.70;3.03;;;12.90;86.40;;;;;;6126234;23;20862;-83
2021/11/09 15:42:16;;;;;;;6.27;2.87;;;12.90;86.90;;;;;;6101185;23;20413;-84
2021/11/09 15:45:20;;;;;;;8.17;2.97;;;13.00;87.30;;;;;;6100436;23;20954;-85
2021/11/09 15:47:49;;;;;;;6.40;3.13;;;12.90;87.50;;;;;;6126410;23;20530;-82
2021/11/09 15:50:16;;;;;;;4.70;2.57;;;12.90;87.70;;;;;;6099073;23;20447;-84
2021/11/09 15:52:43;;;;;;;4.03;2.53;;;12.70;88.40;;;;;;6124181;23;20441;-83
2021/11/09 15:55:10;;;;;;;3.20;2.83;;;12.70;89.40;;;;;;6126263;23;20953;-85
2021/11/09 15:57:39;;;;;;;7.30;3.23;;;12.60;89.70;;;;;;6095620;23;21441;-85
2021/11/09 16:00:10;;;;;;;7.10;4.03;;;12.50;90.10;;;;;;6098181;23;20533;-83
2021/11/09 16:02:37;;;;;;;5.50;3.10;;;12.60;90.50;;;;;;6126774;23;20458;-82
2021/11/09 16:05:24;;;;;;;5.50;3.00;;;12.50;90.40;;;;;;6131751;23;20419;-84
2021/11/09 16:08:02;;;;;;;4.60;3.53;;;12.60;90.40;;;;;;6095687;23;21533;-84
2021/11/09 16:10:38;;;;;;;5.27;3.37;;;12.30;90.90;;;;;;6130904;23;21560;-84
2021/11/09 16:13:08;;;;;;;5.80;3.50;;;12.50;91.00;;;;;;6126734;23;20388;-84
2021/11/09 16:15:52;;;;;;;4.50;3.07;;;12.60;91.10;;;;;;6103207;23;20416;-84
2021/11/09 16:18:21;;;;;;;8.20;3.80;;;12.50;91.10;;;;;;6126150;23;20701;-85
2021/11/09 16:21:17;;;;;;;8.57;4.07;;;12.40;91.30;;;;;;6141891;23;20400;-87
2021/11/09 16:23:47;;;;;;;7.03;3.50;;;12.40;91.60;;;;;;6101167;23;20553;-84
2021/11/09 16:26:28;;;;;;;6.50;3.50;;;12.40;91.50;;;;;;6102956;23;20514;-86
2021/11/09 16:28:54;;;;;;;5.17;3.20;;;12.30;91.80;;;;;;6128826;23;20512;-85
2021/11/09 16:31:21;;;;;;;4.57;3.03;;;12.20;92.20;;;;;;6125578;23;20867;-85
2021/11/09 16:33:54;;;;;;;5.50;3.93;;;12.30;92.20;;;;;;6124314;23;20953;-86
2021/11/09 16:36:22;;;;;;;3.43;3.03;;;12.30;92.20;;;;;;6104149;23;20439;-85
2021/11/09 16:38:54;;;;;;;7.30;4.53;;;12.30;92.20;;;;;;6124939;23;20465;-85
2021/11/09 16:41:23;;;;;;;7.27;3.60;;;12.40;92.40;;;;;;6101808;23;20899;-86
2021/11/09 16:46:54;;;;;;;3.50;3.20;;;12.50;92.10;;;;;;6130321;23;20502;-85
2021/11/09 16:52:06;;;;;;;9.63;4.10;;;12.50;91.80;;;;;;6132369;23;20425;-86
2021/11/09 18:20:42;;;;;;;10.67;6.27;;;11.50;94.90;;;;;;6132546;23;20421;-84
2021/11/09 18:23:10;;;;;;;11.17;6.47;;;11.50;95.00;;;;;;6102600;23;20450;-86
2021/11/09 18:25:37;;;;;;;10.10;6.00;;;11.40;95.00;;;;;;6106937;23;20451;-86
2021/11/09 18:28:07;;;;;;;8.53;6.13;;;11.40;95.20;;;;;;6104992;23;20419;-85
2021/11/09 18:31:12;;;;;;;10.53;5.40;;;11.40;95.30;;;;;;6131560;23;20426;-86
2021/11/09 18:34:04;;;;;;;9.57;5.87;;;11.40;95.20;;;;;;6107537;23;20431;-88
2021/11/09 18:36:46;;;;;;;;;;;;;;;;;;;;;
2021/11/09 18:39:32;;;;;;;11.07;6.30;;;11.20;95.60;;;;;;6140193;23;20763;-85
2021/11/09 18:42:12;;;;;;;15.33;5.93;;;11.20;95.60;;;;;;6110256;23;20849;-83
2021/11/09 18:44:51;;;;;;;9.00;5.70;;;11.20;95.60;;;;;;6117432;23;20425;-84
2021/11/09 18:47:20;;;;;;;10.60;5.07;;;11.20;95.70;;;;;;6132838;23;20424;-86
2021/11/09 18:49:50;;;;;;;8.00;6.00;;;11.10;95.90;;;;;;6128487;23;20442;-84
2021/11/09 18:52:17;;;;;;;7.70;5.37;;;10.90;96.10;;;;;;6104900;23;20388;-83
2021/11/09 18:54:44;;;;;;;9.30;5.50;;;11.00;96.30;;;;;;6131890;23;20439;-85
2021/11/09 18:57:19;;;;;;;6.77;5.63;;;10.90;96.30;;;;;;6104145;23;20441;-85
2021/11/09 18:59:46;;;;;;;9.10;5.70;;;10.70;96.60;;;;;;6104497;23;20951;-83
2021/11/09 19:02:13;;;;;;;8.33;5.80;;;10.80;97.00;;;;;;6103233;23;20408;-83